createdAt,value
2022-11-15T00:01:14.947Z,27.58
2022-11-15T00:04:00.159Z,27.27
2022-11-15T00:06:45.398Z,28.40
2022-11-15T00:09:30.829Z,29.20
2022-11-15T00:12:16.096Z,28.33
2022-11-15T00:15:01.557Z,29.80
2022-11-15T00:17:50.269Z,28.95
2022-11-15T00:20:35.394Z,30.83
2022-11-15T00:23:20.904Z,31.52
2022-11-15T00:26:06.880Z,29.67
2022-11-15T00:28:53.741Z,30.95
2022-11-15T00:31:38.817Z,30.25
2022-11-15T00:34:24.072Z,30.75
2022-11-15T00:37:09.572Z,32.15
2022-11-15T00:39:55.041Z,30.95
2022-11-15T00:42:40.730Z,32.65
2022-11-15T00:45:26.548Z,32.47
2022-11-15T00:48:11.860Z,31.92
2022-11-15T00:50:57.664Z,31.15
2022-11-15T00:53:42.699Z,30.80
2022-11-15T00:56:27.865Z,31.50
2022-11-15T00:59:13.364Z,32.25
2022-11-15T01:01:58.633Z,29.65
2022-11-15T01:04:44.176Z,31.15
2022-11-15T01:07:29.764Z,32.75
2022-11-15T01:10:15.136Z,29.30
2022-11-15T01:13:00.597Z,31.23
2022-11-15T01:15:45.992Z,31.85
2022-11-15T01:18:31.334Z,32.80
2022-11-15T01:21:19.992Z,29.98
2022-11-15T01:24:05.360Z,30.85
2022-11-15T01:26:50.586Z,29.98
2022-11-15T01:29:35.824Z,32.00
2022-11-15T01:32:21.234Z,32.67
2022-11-15T01:35:07.089Z,32.95
2022-11-15T01:37:52.391Z,32.17
2022-11-15T01:40:37.824Z,32.65
2022-11-15T01:43:33.433Z,32.13
2022-11-15T01:46:28.078Z,31.42
2022-11-15T01:49:17.861Z,30.60
2022-11-15T01:52:07.293Z,33.08
2022-11-15T01:55:01.932Z,31.15
2022-11-15T01:57:51.214Z,30.77
2022-11-15T02:00:36.624Z,30.55
2022-11-15T02:03:26.162Z,31.25
2022-11-15T02:06:11.689Z,32.13
2022-11-15T02:08:58.009Z,32.53
2022-11-15T02:11:44.788Z,31.58
2022-11-15T02:14:32.021Z,32.88
2022-11-15T02:20:38.646Z,28.08
2022-11-15T02:23:39.537Z,29.48
2022-11-15T02:27:06.048Z,32.13
2022-11-15T02:30:16.416Z,30.30
2022-11-15T02:33:20.139Z,31.38
2022-11-15T02:36:18.113Z,33.08
2022-11-15T02:41:58.905Z,30.85
2022-11-15T02:44:46.684Z,30.65
2022-11-15T02:47:36.718Z,30.88
2022-11-15T02:50:27.585Z,32.58
2022-11-15T02:53:12.572Z,30.83
2022-11-15T02:55:58.911Z,32.70
2022-11-15T02:58:52.429Z,29.52
2022-11-15T03:01:59.178Z,30.10
2022-11-15T03:04:58.393Z,31.70
2022-11-15T03:08:03.708Z,30.27
2022-11-15T03:11:12.435Z,31.10
2022-11-15T03:17:23.337Z,29.85
2022-11-15T03:20:11.105Z,29.95
2022-11-15T03:23:00.706Z,31.52
2022-11-15T03:25:49.533Z,30.00
2022-11-15T03:29:01.321Z,28.63
2022-11-15T03:31:53.233Z,29.90
2022-11-15T03:34:44.277Z,29.75
2022-11-15T03:37:35.645Z,29.80
2022-11-15T03:40:45.448Z,30.95
2022-11-15T03:43:53.943Z,28.60
2022-11-15T03:46:47.593Z,29.35
2022-11-15T03:49:35.422Z,28.33
2022-11-15T03:52:22.649Z,28.95
2022-11-15T06:47:19.450Z,19.73
2022-11-15T06:50:05.068Z,22.67
2022-11-15T06:52:50.474Z,24.45
2022-11-15T06:55:35.871Z,25.30
2022-11-15T06:58:22.292Z,26.48
2022-11-15T07:01:12.877Z,27.27
2022-11-15T07:03:58.733Z,26.63
2022-11-15T07:06:48.193Z,25.92
2022-11-15T07:09:33.736Z,25.17
2022-11-15T07:12:19.689Z,26.60
2022-11-15T07:15:05.805Z,24.27
2022-11-15T07:17:51.490Z,23.67
2022-11-15T07:20:36.937Z,23.23
2022-11-15T07:23:22.367Z,23.45
2022-11-15T07:26:08.839Z,23.05
2022-11-15T07:28:54.568Z,23.48
2022-11-15T07:31:40.129Z,23.73
2022-11-15T07:34:25.721Z,23.42
2022-11-15T07:37:11.712Z,20.77
2022-11-15T07:39:56.810Z,19.50
2022-11-15T07:43:02.770Z,19.83
2022-11-15T07:45:47.879Z,18.25
2022-11-15T07:48:43.536Z,20.52
2022-11-15T07:51:29.973Z,17.88
2022-11-15T07:54:15.237Z,16.50
2022-11-15T07:57:06.693Z,15.27
2022-11-15T07:59:52.624Z,15.45
2022-11-15T08:02:38.111Z,13.68
2022-11-15T08:05:23.646Z,13.75
2022-11-15T08:08:11.783Z,12.25
2022-11-15T08:10:59.316Z,10.88
2022-11-15T08:13:44.440Z,10.40
2022-11-15T08:16:29.996Z,10.57
2022-11-15T08:19:15.477Z,10.02
2022-11-15T08:22:01.814Z,11.13
2022-11-15T08:24:46.885Z,9.70
2022-11-15T08:27:32.464Z,11.07
2022-11-15T08:30:17.997Z,13.57
2022-11-15T08:33:03.823Z,13.00
2022-11-15T08:35:49.497Z,12.88
2022-11-15T08:38:35.058Z,11.93
2022-11-15T08:41:29.091Z,11.65
2022-11-15T08:44:14.445Z,12.02
2022-11-15T08:46:59.902Z,12.57
2022-11-15T08:49:45.422Z,11.90
2022-11-15T08:52:31.038Z,11.25
2022-11-15T08:55:17.655Z,11.77
2022-11-15T08:58:03.217Z,11.77
2022-11-15T09:00:48.832Z,11.73
2022-11-15T09:03:34.258Z,13.10
2022-11-15T09:06:19.765Z,12.18
2022-11-15T09:09:05.123Z,10.23
2022-11-15T09:11:51.630Z,9.48
2022-11-15T09:14:37.402Z,8.57
2022-11-15T09:17:24.936Z,8.25
2022-11-15T09:20:10.931Z,8.15
2022-11-15T09:22:59.548Z,7.72
2022-11-15T09:25:44.917Z,7.28
2022-11-15T09:28:31.468Z,9.52
2022-11-15T09:31:19.512Z,11.45
2022-11-15T09:34:07.824Z,11.77
2022-11-15T09:36:53.168Z,12.25
2022-11-15T09:39:38.681Z,12.48
2022-11-15T09:43:01.564Z,11.73
2022-11-15T09:46:11.802Z,13.07
2022-11-15T09:49:18.082Z,10.95
2022-11-15T09:52:14.485Z,11.88
2022-11-15T09:54:55.859Z,11.48
2022-11-15T09:57:44.729Z,11.70
2022-11-15T10:03:13.776Z,11.35
2022-11-15T10:05:44.073Z,11.75
2022-11-15T10:08:51.245Z,11.00
2022-11-15T10:11:40.952Z,11.23
2022-11-15T10:14:19.047Z,11.73
2022-11-15T10:17:10.478Z,11.82
2022-11-15T10:20:06.256Z,10.98
2022-11-15T10:22:41.542Z,10.10
2022-11-15T10:25:19.619Z,11.15
2022-11-15T10:28:00.167Z,10.82
2022-11-15T10:30:39.582Z,11.80
2022-11-15T10:33:25.063Z,12.10
2022-11-15T10:36:10.208Z,12.07
2022-11-15T10:38:54.295Z,12.10
2022-11-15T10:41:30.702Z,10.88
2022-11-15T10:44:32.135Z,12.35
2022-11-15T10:46:58.742Z,11.80
2022-11-15T10:49:30.259Z,11.50
2022-11-15T10:51:58.861Z,10.52
2022-11-15T10:54:48.170Z,10.30
2022-11-15T10:57:16.197Z,10.55
2022-11-15T10:59:49.097Z,10.88
2022-11-15T11:02:32.929Z,10.90
2022-11-15T11:05:00.103Z,10.38
2022-11-15T11:07:29.545Z,10.98
2022-11-15T11:10:50.374Z,10.25
2022-11-15T11:13:25.917Z,9.80
2022-11-15T11:15:57.088Z,10.68
2022-11-15T11:18:33.637Z,10.20
2022-11-15T11:21:08.400Z,10.23
2022-11-15T11:23:44.307Z,11.60
2022-11-15T11:26:43.041Z,11.33
2022-11-15T11:29:20.676Z,10.65
2022-11-15T11:31:54.421Z,10.45
2022-11-15T11:34:41.845Z,9.63
2022-11-15T11:39:52.329Z,9.90
2022-11-15T11:42:59.114Z,10.73
2022-11-15T11:45:37.678Z,9.63
2022-11-15T11:48:14.153Z,9.15
2022-11-15T11:50:42.829Z,8.70
2022-11-15T11:53:28.175Z,9.20
2022-11-15T11:56:02.552Z,9.35
2022-11-15T11:58:42.666Z,8.88
2022-11-15T12:01:18.672Z,8.90
2022-11-15T12:04:06.604Z,9.13
2022-11-15T12:06:36.742Z,8.63
2022-11-15T12:09:12.143Z,8.65
2022-11-15T12:12:08.326Z,9.02
2022-11-15T12:14:49.197Z,8.98
2022-11-15T12:17:20.575Z,8.68
2022-11-15T12:19:47.405Z,8.63
2022-11-15T12:22:19.173Z,8.45
2022-11-15T12:24:49.592Z,8.45
2022-11-15T12:27:38.434Z,9.60
2022-11-15T12:30:16.989Z,8.93
2022-11-15T12:33:01.233Z,8.88
2022-11-15T12:35:31.563Z,8.80
2022-11-15T12:37:58.322Z,8.85
2022-11-15T12:40:32.901Z,10.10
2022-11-15T12:43:06.120Z,9.07
2022-11-15T12:45:38.413Z,9.02
2022-11-15T12:48:17.314Z,8.35
2022-11-15T12:50:54.049Z,9.15
2022-11-15T12:53:23.795Z,8.68
2022-11-15T12:56:17.857Z,9.20
2022-11-15T12:59:03.313Z,9.40
2022-11-15T13:01:38.998Z,9.32
2022-11-15T13:04:27.209Z,8.63
2022-11-15T13:07:00.262Z,7.90
2022-11-15T13:09:32.850Z,8.38
2022-11-15T13:12:02.702Z,7.97
2022-11-15T13:14:46.954Z,7.80
2022-11-15T13:17:32.292Z,7.43
2022-11-15T13:20:11.484Z,7.95
2022-11-15T13:22:52.845Z,8.57
2022-11-15T13:25:28.632Z,7.82
2022-11-15T13:27:59.584Z,7.82
2022-11-15T13:30:31.173Z,7.43
2022-11-15T13:33:06.849Z,8.27
2022-11-15T13:35:37.132Z,7.57
2022-11-15T13:38:05.645Z,7.60
2022-11-15T13:40:38.797Z,7.93
2022-11-15T13:43:28.488Z,7.65
2022-11-15T13:46:16.360Z,7.68
2022-11-15T13:48:44.723Z,7.70
2022-11-15T13:51:35.357Z,7.38
2022-11-15T13:54:14.425Z,8.10
2022-11-15T13:56:46.123Z,8.88
2022-11-15T13:59:26.754Z,7.82
2022-11-15T14:01:56.217Z,7.82
2022-11-15T14:04:26.214Z,7.18
2022-11-15T14:06:57.714Z,7.35
2022-11-15T14:09:53.925Z,8.02
2022-11-15T14:12:31.302Z,7.32
2022-11-15T14:15:17.262Z,7.65
2022-11-15T14:17:49.766Z,7.63
2022-11-15T14:20:40.691Z,7.63
2022-11-15T14:23:29.522Z,8.23
2022-11-15T14:25:58.969Z,8.15
2022-11-15T14:28:25.638Z,8.27
2022-11-15T14:30:54.515Z,8.55
2022-11-15T14:33:30.737Z,7.20
2022-11-15T14:35:59.448Z,7.68
2022-11-15T14:38:26.914Z,7.45
2022-11-15T14:40:54.906Z,7.57
2022-11-15T14:43:21.701Z,8.55
2022-11-15T14:45:48.431Z,8.50
2022-11-15T14:48:15.145Z,8.18
2022-11-15T14:50:41.877Z,8.43
2022-11-15T14:53:13.711Z,8.73
2022-11-15T14:55:40.597Z,9.35
2022-11-15T14:58:11.046Z,8.45
2022-11-15T15:00:40.538Z,8.38
2022-11-15T15:03:07.476Z,8.65
2022-11-15T15:05:40.307Z,9.43
2022-11-15T15:08:08.301Z,9.48
2022-11-15T15:10:40.601Z,8.38
2022-11-15T15:13:20.514Z,8.68
2022-11-15T15:15:48.403Z,9.23
2022-11-15T15:18:16.290Z,9.70
2022-11-15T15:20:44.570Z,9.20
2022-11-15T15:23:17.349Z,9.25
2022-11-15T15:25:46.352Z,9.23
2022-11-15T15:28:13.792Z,9.43
2022-11-15T15:30:40.493Z,8.30
2022-11-15T15:33:07.209Z,9.57
2022-11-15T15:35:35.670Z,8.82
2022-11-15T15:38:04.296Z,8.68
2022-11-15T15:40:32.914Z,9.02
2022-11-15T15:42:59.911Z,9.55
2022-11-15T15:45:28.463Z,8.70
2022-11-15T15:47:55.375Z,8.80
2022-11-15T15:50:26.981Z,8.88
2022-11-15T15:52:56.015Z,8.82
2022-11-15T15:55:23.127Z,7.97
2022-11-15T15:57:50.363Z,8.82
2022-11-15T16:00:18.188Z,8.95
2022-11-15T16:02:44.933Z,8.95
2022-11-15T16:05:13.037Z,9.52
2022-11-15T16:07:40.646Z,9.75
2022-11-15T16:10:25.909Z,8.60
2022-11-15T16:12:53.976Z,8.68
2022-11-15T16:15:21.839Z,9.90
2022-11-15T16:17:56.896Z,8.90
2022-11-15T16:20:40.271Z,8.85
2022-11-15T16:23:10.212Z,8.40
2022-11-15T16:25:56.270Z,8.00
2022-11-15T16:28:24.210Z,8.38
2022-11-15T16:31:04.226Z,8.48
2022-11-15T16:33:31.510Z,8.98
2022-11-15T16:35:58.793Z,8.73
2022-11-15T16:38:25.439Z,9.25
2022-11-15T16:40:52.069Z,9.48
2022-11-15T16:43:18.780Z,9.57
2022-11-15T16:45:45.709Z,9.13
2022-11-15T16:48:23.724Z,12.18
2022-11-15T16:50:50.883Z,13.20
2022-11-15T16:53:17.772Z,14.15
2022-11-15T16:55:44.748Z,14.73
2022-11-15T16:58:11.401Z,12.02
2022-11-15T17:00:38.067Z,11.07
2022-11-15T17:03:04.827Z,10.73
2022-11-15T17:05:31.611Z,10.82
2022-11-15T17:07:58.261Z,10.85
2022-11-15T17:10:26.590Z,10.30
2022-11-15T17:12:55.267Z,10.27
2022-11-15T17:15:22.380Z,10.50
2022-11-15T17:17:53.873Z,10.25
2022-11-15T17:20:22.604Z,10.60
2022-11-15T17:22:49.284Z,10.05
2022-11-15T17:25:16.223Z,10.50
2022-11-15T17:27:42.951Z,10.48
2022-11-15T17:30:12.439Z,11.55
2022-11-15T17:32:39.122Z,11.93
2022-11-15T17:35:11.999Z,13.00
2022-11-15T17:37:41.904Z,13.85
2022-11-15T17:40:09.316Z,13.35
2022-11-15T17:42:36.045Z,14.40
2022-11-15T17:45:06.716Z,14.27
2022-11-15T17:47:36.976Z,15.73
2022-11-15T17:50:04.061Z,16.33
2022-11-15T17:52:30.732Z,15.85
2022-11-15T17:54:57.343Z,15.85
2022-11-15T17:57:24.095Z,14.93
2022-11-15T17:59:50.777Z,14.52
2022-11-15T18:02:17.539Z,13.95
2022-11-15T18:04:44.249Z,15.07
2022-11-15T18:07:12.326Z,14.13
2022-11-15T18:09:42.219Z,14.32
2022-11-15T18:12:09.986Z,14.63
2022-11-15T18:14:36.656Z,15.32
2022-11-15T18:17:03.522Z,15.02
2022-11-15T18:19:30.167Z,15.43
2022-11-15T18:21:56.957Z,14.15
2022-11-15T18:24:29.144Z,14.13
2022-11-15T18:26:56.846Z,13.10
2022-11-15T18:29:26.940Z,14.20
2022-11-15T18:31:58.689Z,13.30
2022-11-15T18:34:28.708Z,12.75
2022-11-15T18:36:55.432Z,14.15
2022-11-15T18:39:24.246Z,14.15
2022-11-15T18:41:51.805Z,14.23
2022-11-15T18:44:18.701Z,13.75
2022-11-15T18:46:45.368Z,14.15
2022-11-15T18:49:14.201Z,13.98
2022-11-15T18:51:44.041Z,13.88
2022-11-15T18:54:13.055Z,13.10
2022-11-15T18:56:40.575Z,14.00
2022-11-15T18:59:08.659Z,14.35
2022-11-15T19:01:38.190Z,14.50
2022-11-15T19:04:13.410Z,13.63
2022-11-15T19:06:42.182Z,12.02
2022-11-15T19:09:10.713Z,11.55
2022-11-15T19:11:39.585Z,12.48
2022-11-15T19:14:08.631Z,12.73
2022-11-15T19:16:38.165Z,12.80
2022-11-15T19:19:07.622Z,12.40
2022-11-15T19:21:34.728Z,11.10
2022-11-15T19:24:01.622Z,11.50
2022-11-15T19:26:29.714Z,11.80
2022-11-15T19:28:58.665Z,12.27
2022-11-15T19:31:26.811Z,12.73
2022-11-15T19:33:54.782Z,12.40
2022-11-15T19:36:28.799Z,12.23
2022-11-15T19:38:59.840Z,11.98
2022-11-15T19:41:27.033Z,12.77
2022-11-15T19:43:54.010Z,12.93
2022-11-15T19:46:23.516Z,13.20
2022-11-15T19:48:51.552Z,14.02
2022-11-15T19:51:23.775Z,12.60
2022-11-15T19:53:58.881Z,12.32
2022-11-15T19:56:25.967Z,12.73
2022-11-15T19:58:54.233Z,12.60
2022-11-15T20:01:22.945Z,12.25
2022-11-15T20:03:51.116Z,12.13
2022-11-15T20:06:19.664Z,11.85
2022-11-15T20:08:47.957Z,12.57
2022-11-15T20:11:16.083Z,12.90
2022-11-15T20:13:44.208Z,11.80
2022-11-15T20:16:19.649Z,13.45
2022-11-15T20:18:47.622Z,13.45
2022-11-15T20:21:14.795Z,13.20
2022-11-15T20:23:41.801Z,14.05
2022-11-15T20:26:09.593Z,11.95
2022-11-15T20:28:38.329Z,12.60
2022-11-15T20:31:06.183Z,13.98
2022-11-15T20:33:32.918Z,13.20
2022-11-15T20:36:04.455Z,13.40
2022-11-15T20:38:31.879Z,13.90
2022-11-15T20:41:00.333Z,13.10
2022-11-15T20:43:27.395Z,13.40
2022-11-15T20:45:54.316Z,14.63
2022-11-15T20:48:20.982Z,14.18
2022-11-15T20:50:47.961Z,14.88
2022-11-15T20:53:17.475Z,14.02
2022-11-15T20:55:52.351Z,14.75
2022-11-15T20:58:19.642Z,14.35
2022-11-15T21:00:46.739Z,15.18
2022-11-15T21:03:14.472Z,14.77
2022-11-15T21:05:43.682Z,15.35
2022-11-15T21:08:12.164Z,14.57
2022-11-15T21:11:06.666Z,15.05
2022-11-15T21:13:33.313Z,15.77
2022-11-15T21:16:00.497Z,14.98
2022-11-15T21:18:27.177Z,15.02
2022-11-15T21:20:53.863Z,15.30
2022-11-15T21:23:21.277Z,16.80
2022-11-15T21:25:51.945Z,17.17
2022-11-15T21:28:18.729Z,16.23
2022-11-15T21:30:59.868Z,18.15
2022-11-15T21:33:29.924Z,16.45
2022-11-15T21:35:57.843Z,17.33
2022-11-15T21:38:24.758Z,18.00
2022-11-15T21:40:52.501Z,18.17
2022-11-15T21:43:20.236Z,18.15
2022-11-15T21:46:01.299Z,17.92
2022-11-15T21:48:30.108Z,18.27
2022-11-15T21:51:03.390Z,19.70
2022-11-15T21:53:31.652Z,18.60
2022-11-15T21:55:59.285Z,19.02
2022-11-15T21:58:26.495Z,18.17
2022-11-15T22:01:13.615Z,18.60
2022-11-15T22:03:41.157Z,19.00
2022-11-15T22:06:09.861Z,18.85
2022-11-15T22:08:39.757Z,18.20
2022-11-15T22:11:06.720Z,19.80
2022-11-15T22:13:33.402Z,18.05
2022-11-15T22:16:00.072Z,17.15
2022-11-15T22:18:30.881Z,18.05
2022-11-15T22:21:17.337Z,18.88
2022-11-15T22:23:45.105Z,19.17
2022-11-15T22:26:19.496Z,19.30
2022-11-15T22:28:49.805Z,19.45
2022-11-15T22:31:16.459Z,18.83
2022-11-15T22:33:43.196Z,18.90
2022-11-15T22:36:12.108Z,18.38
2022-11-15T22:38:38.798Z,18.85
2022-11-15T22:41:05.712Z,17.92
2022-11-15T22:43:32.342Z,17.10
2022-11-15T22:46:00.521Z,17.73
2022-11-15T22:48:30.054Z,16.40
2022-11-15T22:50:57.308Z,16.40
2022-11-15T22:53:24.360Z,18.20
2022-11-15T22:55:56.221Z,17.17
2022-11-15T22:58:24.620Z,17.73
2022-11-15T23:00:53.200Z,16.60
2022-11-15T23:03:20.515Z,17.45
2022-11-15T23:05:47.686Z,16.92
2022-11-15T23:08:14.455Z,16.63
2022-11-15T23:10:59.757Z,17.10
2022-11-15T23:13:28.626Z,16.63
2022-11-15T23:16:21.705Z,16.70
2022-11-15T23:18:50.119Z,16.02
2022-11-15T23:21:39.509Z,15.90
2022-11-15T23:24:06.609Z,15.80
2022-11-15T23:26:33.445Z,16.25
2022-11-15T23:29:00.253Z,16.48
2022-11-15T23:31:45.468Z,17.00
2022-11-15T23:34:12.365Z,15.77
2022-11-15T23:36:40.597Z,16.10
2022-11-15T23:39:07.637Z,15.80
2022-11-15T23:41:34.496Z,15.50
2022-11-15T23:44:01.211Z,15.43
2022-11-15T23:46:28.073Z,16.58
2022-11-15T23:48:54.709Z,15.05
2022-11-15T23:51:21.407Z,14.82
2022-11-15T23:53:48.028Z,14.73
2022-11-15T23:56:16.737Z,16.15
2022-11-15T23:58:44.237Z,13.98
